Time;durP1;ratioP1;P1;durP2;ratioP2;P2;SDS_P1;SDS_P2;PMS_P1;PMS_P2;Temp;Humidity;BMP_temperature;BMP_pressure;BME280_temperature;BME280_humidity;BME280_pressure;Samples;Min_cycle;Max_cycle;Signal;HPM_P1;HPM_P2
2020/12/31 00:02:13;;;;;;;5.10;3.70;;;3.70;99.90;;;;;;5021305;28;20197;-74
2020/12/31 00:04:40;;;;;;;5.20;4.13;;;3.70;99.90;;;;;;5037311;28;20288;-74
2020/12/31 00:07:08;;;;;;;4.70;3.70;;;3.80;99.90;;;;;;5022656;28;20639;-74
2020/12/31 00:09:37;;;;;;;6.73;4.13;;;3.90;99.90;;;;;;5020848;28;20248;-73
2020/12/31 00:12:05;;;;;;;7.60;3.90;;;3.90;99.90;;;;;;5016573;28;21845;-73
2020/12/31 00:14:32;;;;;;;6.60;4.10;;;3.90;99.90;;;;;;5020811;28;20193;-73
2020/12/31 00:16:58;;;;;;;7.70;3.90;;;3.80;99.90;;;;;;5019070;28;20571;-74
2020/12/31 00:19:25;;;;;;;5.17;3.53;;;3.70;99.90;;;;;;5027726;28;20254;-73
2020/12/31 00:21:51;;;;;;;6.30;4.20;;;3.70;99.90;;;;;;5019729;28;20356;-73
2020/12/31 00:24:17;;;;;;;5.70;3.70;;;3.70;99.90;;;;;;5021469;28;20247;-74
2020/12/31 00:26:44;;;;;;;5.37;3.90;;;3.70;99.90;;;;;;5021783;28;20242;-74
2020/12/31 00:29:10;;;;;;;5.40;3.80;;;3.70;99.90;;;;;;5007103;28;20642;-74
2020/12/31 00:31:36;;;;;;;6.00;4.03;;;3.80;99.90;;;;;;5018070;28;20255;-74
2020/12/31 00:34:03;;;;;;;4.97;3.90;;;3.80;99.90;;;;;;5018099;28;20228;-74
2020/12/31 00:36:29;;;;;;;5.03;3.67;;;3.90;99.90;;;;;;5019580;28;20311;-74
2020/12/31 00:38:56;;;;;;;5.30;3.83;;;3.80;99.90;;;;;;5026724;28;20212;-73
2020/12/31 00:41:22;;;;;;;5.23;3.80;;;3.90;99.90;;;;;;5003984;28;20197;-75
2020/12/31 00:43:49;;;;;;;4.43;3.47;;;3.80;99.90;;;;;;5016016;28;20232;-74
2020/12/31 00:46:16;;;;;;;4.90;3.10;;;3.80;99.90;;;;;;5019884;28;20279;-74
2020/12/31 00:48:43;;;;;;;4.43;3.53;;;3.80;99.90;;;;;;5026297;28;20213;-73
2020/12/31 00:51:10;;;;;;;4.17;3.10;;;3.90;99.90;;;;;;5032322;28;20637;-73
2020/12/31 00:53:36;;;;;;;4.73;3.83;;;3.80;99.90;;;;;;5013470;28;20319;-73
2020/12/31 00:56:02;;;;;;;3.50;3.00;;;3.70;99.90;;;;;;5037541;28;20228;-73
2020/12/31 00:58:29;;;;;;;4.03;3.43;;;3.60;99.90;;;;;;5019804;28;20235;-73
2020/12/31 01:00:56;;;;;;;7.03;3.47;;;3.70;99.90;;;;;;5007811;28;20210;-74
2020/12/31 01:03:22;;;;;;;5.73;3.53;;;3.60;99.90;;;;;;5020847;28;20270;-73
2020/12/31 01:05:48;;;;;;;3.87;3.00;;;3.60;99.90;;;;;;5017817;28;20292;-73
2020/12/31 01:08:16;;;;;;;5.17;3.43;;;3.60;99.90;;;;;;5002851;28;20197;-72
2020/12/31 01:10:43;;;;;;;5.33;3.60;;;3.60;99.90;;;;;;5023774;28;20223;-72
2020/12/31 01:13:10;;;;;;;4.33;3.20;;;3.60;99.90;;;;;;5018353;28;20633;-72
2020/12/31 01:15:37;;;;;;;4.10;2.83;;;3.60;99.90;;;;;;5033250;28;20217;-73
2020/12/31 01:18:03;;;;;;;3.70;3.30;;;3.60;99.90;;;;;;5006086;28;20200;-72
2020/12/31 01:20:30;;;;;;;3.83;3.03;;;3.70;99.90;;;;;;5009817;28;20599;-72
2020/12/31 01:22:57;;;;;;;4.43;3.37;;;3.70;99.90;;;;;;5016925;28;20514;-71
2020/12/31 01:25:24;;;;;;;5.43;2.93;;;3.70;99.90;;;;;;5014778;28;20246;-72
2020/12/31 01:27:50;;;;;;;3.60;2.93;;;3.70;99.90;;;;;;5010505;28;20228;-74
2020/12/31 01:30:16;;;;;;;4.27;3.20;;;3.60;99.90;;;;;;5023147;28;20288;-72
2020/12/31 01:32:42;;;;;;;3.80;2.17;;;3.60;99.90;;;;;;5024943;28;20614;-72
2020/12/31 01:35:09;;;;;;;4.63;3.33;;;3.70;99.90;;;;;;5026166;28;20189;-72
2020/12/31 01:37:35;;;;;;;3.83;3.03;;;3.70;99.90;;;;;;5020443;28;20269;-72
2020/12/31 01:40:02;;;;;;;4.03;2.97;;;3.80;99.90;;;;;;5025791;28;20628;-72
2020/12/31 01:42:28;;;;;;;5.17;2.80;;;3.70;99.90;;;;;;5020394;28;20305;-72
2020/12/31 01:44:55;;;;;;;4.47;2.80;;;3.60;99.90;;;;;;4987303;28;20205;-72
2020/12/31 01:47:21;;;;;;;3.97;2.70;;;3.70;99.90;;;;;;5020784;28;20244;-72
2020/12/31 01:49:49;;;;;;;4.23;2.63;;;3.60;99.90;;;;;;5025538;28;20248;-73
2020/12/31 01:52:17;;;;;;;4.87;3.47;;;3.60;99.90;;;;;;5017829;28;20233;-72
2020/12/31 01:54:49;;;;;;;4.57;3.00;;;3.60;99.90;;;;;;5019737;28;20293;-72
2020/12/31 01:57:15;;;;;;;4.07;3.07;;;3.60;99.90;;;;;;5028247;28;20247;-75
2020/12/31 01:59:41;;;;;;;4.40;2.97;;;3.70;99.90;;;;;;5015450;28;20230;-72
2020/12/31 02:02:09;;;;;;;3.53;2.60;;;3.70;99.90;;;;;;5019199;28;20667;-72
2020/12/31 02:04:36;;;;;;;5.33;2.60;;;3.70;99.90;;;;;;5011278;28;20208;-72
2020/12/31 02:07:02;;;;;;;2.97;2.43;;;3.70;99.90;;;;;;5024763;28;20260;-75
2020/12/31 02:09:30;;;;;;;4.77;2.80;;;3.80;99.90;;;;;;5019487;28;20218;-73
2020/12/31 02:12:02;;;;;;;3.60;2.67;;;3.80;99.90;;;;;;5019640;28;20236;-72
2020/12/31 02:14:28;;;;;;;7.13;2.53;;;3.80;99.90;;;;;;5025492;28;20230;-72
2020/12/31 02:16:55;;;;;;;3.37;2.70;;;3.70;99.90;;;;;;5028202;28;20204;-72
2020/12/31 02:19:22;;;;;;;4.23;2.30;;;3.70;99.90;;;;;;5026890;28;20699;-72
2020/12/31 02:21:49;;;;;;;2.97;2.60;;;3.80;99.90;;;;;;5019892;28;20207;-72
2020/12/31 02:24:17;;;;;;;4.50;2.57;;;3.70;99.90;;;;;;5001546;28;20673;-72
2020/12/31 02:26:46;;;;;;;4.90;2.27;;;3.80;99.90;;;;;;5019054;28;20345;-72
2020/12/31 02:29:14;;;;;;;4.23;2.80;;;3.60;99.90;;;;;;5056412;28;20312;-73
2020/12/31 02:31:42;;;;;;;3.77;2.43;;;3.60;99.90;;;;;;5006375;28;20288;-72
2020/12/31 02:34:09;;;;;;;3.40;2.70;;;3.70;99.90;;;;;;5029133;28;20196;-72
2020/12/31 02:36:37;;;;;;;3.50;2.50;;;3.70;99.90;;;;;;5026841;28;20204;-73
2020/12/31 02:39:09;;;;;;;2.80;2.20;;;3.80;99.90;;;;;;5028618;28;20223;-72
2020/12/31 02:41:37;;;;;;;4.13;2.77;;;3.90;99.90;;;;;;5032571;28;20204;-72
2020/12/31 02:44:04;;;;;;;5.90;2.27;;;3.90;99.90;;;;;;5025854;28;20286;-72
2020/12/31 02:46:31;;;;;;;3.63;2.37;;;3.70;99.90;;;;;;5033707;28;20245;-72
2020/12/31 02:48:57;;;;;;;2.93;2.40;;;3.70;99.90;;;;;;5031450;28;20271;-72
2020/12/31 02:51:24;;;;;;;4.20;2.40;;;3.80;99.90;;;;;;5026327;28;20207;-71
2020/12/31 02:53:50;;;;;;;3.17;2.50;;;3.90;99.90;;;;;;5026902;28;20225;-72
2020/12/31 02:56:18;;;;;;;3.43;2.60;;;3.90;99.90;;;;;;5015481;28;20609;-72
2020/12/31 02:58:45;;;;;;;4.57;2.70;;;3.90;99.90;;;;;;5032830;28;20278;-74
2020/12/31 03:01:12;;;;;;;3.53;2.70;;;3.70;99.90;;;;;;5028846;28;20194;-72
2020/12/31 03:03:38;;;;;;;3.97;3.13;;;3.70;99.90;;;;;;5028117;28;20213;-71
2020/12/31 03:06:06;;;;;;;3.47;2.60;;;3.90;99.90;;;;;;5023175;28;20229;-71
2020/12/31 03:08:34;;;;;;;3.33;2.50;;;3.80;99.90;;;;;;5027273;28;20242;-72
2020/12/31 03:11:00;;;;;;;4.47;2.70;;;3.80;99.90;;;;;;5025504;28;20232;-72
2020/12/31 03:13:28;;;;;;;4.93;2.37;;;3.70;99.90;;;;;;5027357;28;20225;-72
2020/12/31 03:15:55;;;;;;;3.40;2.80;;;3.60;99.90;;;;;;5029692;28;20281;-72
2020/12/31 03:18:22;;;;;;;3.00;2.57;;;3.70;99.90;;;;;;5024401;28;20219;-72
2020/12/31 03:20:49;;;;;;;4.60;3.10;;;3.60;99.90;;;;;;5033024;28;20201;-72
2020/12/31 03:23:17;;;;;;;3.40;2.77;;;3.60;99.90;;;;;;5028117;28;20293;-72
2020/12/31 03:25:45;;;;;;;3.03;2.10;;;3.70;99.90;;;;;;5021164;28;20258;-72
2020/12/31 03:28:15;;;;;;;4.47;3.07;;;3.60;99.90;;;;;;5039906;28;20380;-72
2020/12/31 03:30:45;;;;;;;2.87;2.37;;;3.60;99.90;;;;;;5028979;28;20243;-73
2020/12/31 03:33:13;;;;;;;4.50;3.00;;;3.70;99.90;;;;;;5026520;28;20348;-72
2020/12/31 03:35:44;;;;;;;4.23;2.70;;;3.70;99.90;;;;;;5014747;28;20212;-74
2020/12/31 03:38:11;;;;;;;3.27;2.50;;;3.80;99.90;;;;;;5030636;28;20258;-72
2020/12/31 03:40:38;;;;;;;4.20;2.77;;;3.80;99.90;;;;;;5027948;28;20204;-72
2020/12/31 03:43:05;;;;;;;3.83;3.20;;;3.90;99.90;;;;;;5026502;28;20230;-72
2020/12/31 03:45:32;;;;;;;3.50;2.60;;;3.80;99.90;;;;;;5027124;28;20572;-74
2020/12/31 03:47:59;;;;;;;3.43;2.50;;;3.90;99.90;;;;;;5012003;28;20204;-72
2020/12/31 03:50:26;;;;;;;3.57;2.37;;;3.90;99.90;;;;;;5028627;28;20247;-72
2020/12/31 03:52:52;;;;;;;2.73;2.40;;;3.90;99.90;;;;;;5022810;28;20550;-72
2020/12/31 03:55:19;;;;;;;6.07;3.00;;;3.90;99.90;;;;;;5020337;28;20216;-72
2020/12/31 03:57:45;;;;;;;3.30;2.40;;;3.90;99.90;;;;;;5027508;28;20197;-72
2020/12/31 04:00:12;;;;;;;3.73;2.30;;;3.90;99.90;;;;;;5015810;28;20254;-71
2020/12/31 04:02:39;;;;;;;3.30;2.30;;;3.90;99.90;;;;;;5020082;28;20200;-72
2020/12/31 04:05:06;;;;;;;3.63;2.47;;;3.90;99.90;;;;;;5021085;28;20561;-71
2020/12/31 04:07:33;;;;;;;2.97;2.37;;;4.00;99.90;;;;;;5025964;28;20294;-72
2020/12/31 04:09:59;;;;;;;5.70;3.30;;;4.10;99.90;;;;;;4999737;28;20258;-72
2020/12/31 04:12:25;;;;;;;3.83;2.70;;;4.10;99.90;;;;;;5020192;28;20220;-72
2020/12/31 04:14:51;;;;;;;4.37;2.70;;;4.00;99.90;;;;;;5023862;28;20226;-72
2020/12/31 04:17:18;;;;;;;4.27;3.10;;;4.00;99.90;;;;;;5010226;28;20204;-72
2020/12/31 04:19:44;;;;;;;6.20;2.77;;;4.00;99.90;;;;;;5057057;28;20304;-72
2020/12/31 04:22:10;;;;;;;3.87;2.93;;;4.00;99.90;;;;;;5011258;28;20231;-72
2020/12/31 04:24:36;;;;;;;4.50;2.67;;;3.90;99.90;;;;;;5023269;28;20641;-72
2020/12/31 04:27:03;;;;;;;4.37;2.27;;;4.10;99.90;;;;;;5026961;28;20287;-72
2020/12/31 04:29:29;;;;;;;3.50;2.57;;;3.90;99.90;;;;;;5025863;28;20251;-71
2020/12/31 04:31:56;;;;;;;4.20;2.20;;;4.00;99.90;;;;;;5020235;28;20243;-72
2020/12/31 04:34:22;;;;;;;3.33;2.27;;;4.00;99.90;;;;;;5018792;28;20197;-72
2020/12/31 04:36:48;;;;;;;4.63;2.73;;;4.00;99.90;;;;;;5025839;28;20516;-72
2020/12/31 04:39:14;;;;;;;3.00;2.10;;;4.10;99.90;;;;;;5026294;28;20208;-72
2020/12/31 04:41:43;;;;;;;3.53;2.43;;;4.00;99.90;;;;;;5017086;28;20582;-72
2020/12/31 04:44:13;;;;;;;3.13;2.37;;;4.00;99.90;;;;;;5009933;28;20615;-71
2020/12/31 04:46:41;;;;;;;4.50;2.70;;;4.00;99.90;;;;;;5022348;28;20680;-71
2020/12/31 04:49:11;;;;;;;2.90;2.17;;;3.90;99.90;;;;;;5020456;28;20581;-72
2020/12/31 04:51:38;;;;;;;2.20;1.77;;;3.90;99.90;;;;;;5032412;28;20234;-72
2020/12/31 04:54:08;;;;;;;4.37;2.40;;;3.90;99.90;;;;;;5005496;28;20197;-72
2020/12/31 04:56:36;;;;;;;4.57;2.37;;;3.90;99.90;;;;;;5035754;28;20214;-72
2020/12/31 04:59:04;;;;;;;2.50;1.97;;;3.80;99.90;;;;;;5028577;28;20341;-73
2020/12/31 05:01:30;;;;;;;3.40;2.20;;;3.70;99.90;;;;;;5024250;28;20250;-73
2020/12/31 05:03:57;;;;;;;2.97;1.90;;;3.80;99.90;;;;;;5020856;28;20196;-72
2020/12/31 05:06:25;;;;;;;4.53;2.17;;;3.70;99.90;;;;;;5026501;28;20219;-72
2020/12/31 05:08:51;;;;;;;3.17;1.90;;;3.70;99.90;;;;;;5018625;28;20279;-72
2020/12/31 05:11:18;;;;;;;3.07;1.83;;;3.60;99.90;;;;;;5022958;28;20228;-72
2020/12/31 05:13:51;;;;;;;2.33;2.00;;;3.80;99.90;;;;;;5027240;28;20235;-72
2020/12/31 05:16:29;;;;;;;4.53;2.23;;;3.80;99.90;;;;;;5023201;28;20277;-72
2020/12/31 05:18:56;;;;;;;2.60;2.10;;;3.80;99.90;;;;;;5027133;28;20199;-72
2020/12/31 05:21:23;;;;;;;2.77;2.17;;;3.90;99.90;;;;;;5025585;28;20199;-72
2020/12/31 05:23:49;;;;;;;5.77;1.73;;;3.80;99.90;;;;;;5008985;28;20257;-71
2020/12/31 05:26:29;;;;;;;3.33;2.00;;;3.80;99.90;;;;;;5025354;28;20264;-72
2020/12/31 05:28:57;;;;;;;3.30;1.97;;;3.70;99.90;;;;;;5022300;28;20590;-72
2020/12/31 05:31:23;;;;;;;1.70;1.30;;;3.80;99.90;;;;;;5011931;28;20235;-72
2020/12/31 05:33:53;;;;;;;1.70;1.50;;;3.80;99.90;;;;;;5026087;28;20319;-73
2020/12/31 05:36:27;;;;;;;3.53;1.73;;;3.70;99.90;;;;;;5018706;28;20339;-72
2020/12/31 05:39:00;;;;;;;5.50;1.90;;;3.80;99.90;;;;;;5009638;28;20207;-72
2020/12/31 05:41:35;;;;;;;2.70;1.40;;;3.90;99.90;;;;;;5026034;28;20346;-71
2020/12/31 05:44:06;;;;;;;1.63;1.40;;;3.90;99.90;;;;;;5042173;28;20223;-72
2020/12/31 05:46:37;;;;;;;2.20;1.30;;;3.70;99.90;;;;;;5026214;28;20224;-72
2020/12/31 05:49:05;;;;;;;1.43;1.10;;;3.70;99.90;;;;;;5026694;28;20199;-73
2020/12/31 05:51:34;;;;;;;2.33;1.10;;;3.70;99.90;;;;;;5025503;28;20207;-72
2020/12/31 05:54:11;;;;;;;2.00;1.20;;;3.60;99.90;;;;;;5025558;28;20196;-73
2020/12/31 05:56:39;;;;;;;3.77;1.20;;;3.60;99.90;;;;;;5020585;28;20227;-72
2020/12/31 05:59:26;;;;;;;6.27;1.50;;;3.60;99.90;;;;;;5025755;28;20203;-73
2020/12/31 06:02:00;;;;;;;1.97;1.47;;;3.50;99.90;;;;;;5021255;28;20664;-72
2020/12/31 06:04:29;;;;;;;1.53;1.03;;;3.60;99.90;;;;;;5023135;28;20267;-73
2020/12/31 06:07:04;;;;;;;1.83;1.10;;;3.80;99.90;;;;;;5022189;28;20622;-72
2020/12/31 06:09:35;;;;;;;1.37;0.97;;;3.90;99.90;;;;;;5019559;28;20275;-72
2020/12/31 06:12:06;;;;;;;2.03;1.23;;;3.80;99.90;;;;;;5021009;28;20263;-73
2020/12/31 06:14:34;;;;;;;2.60;0.97;;;3.80;99.90;;;;;;5007704;28;20606;-73
2020/12/31 06:17:03;;;;;;;1.90;1.33;;;3.90;99.90;;;;;;5025512;28;20553;-73
2020/12/31 06:19:34;;;;;;;1.20;1.10;;;4.00;99.90;;;;;;5008840;28;20232;-73
2020/12/31 06:22:11;;;;;;;2.57;1.47;;;3.60;99.90;;;;;;5014892;28;20660;-72
2020/12/31 06:24:39;;;;;;;2.70;0.90;;;3.70;99.90;;;;;;5025562;28;20281;-72
2020/12/31 06:27:06;;;;;;;1.40;1.00;;;3.60;99.90;;;;;;5022759;28;21075;-72
2020/12/31 06:29:45;;;;;;;2.10;1.40;;;3.60;99.90;;;;;;5020344;28;20583;-73
2020/12/31 06:32:19;;;;;;;2.27;1.07;;;3.60;99.90;;;;;;5023467;28;20334;-73
2020/12/31 06:34:46;;;;;;;1.50;1.20;;;3.70;99.90;;;;;;5023706;28;20597;-73
2020/12/31 06:37:13;;;;;;;2.40;1.20;;;3.80;99.90;;;;;;5023938;28;20274;-72
2020/12/31 06:39:40;;;;;;;1.93;1.00;;;4.00;99.90;;;;;;5033807;28;20257;-73
2020/12/31 06:42:07;;;;;;;1.40;1.13;;;3.80;99.90;;;;;;5026270;28;20587;-72
2020/12/31 06:44:34;;;;;;;1.93;1.30;;;4.00;99.90;;;;;;5025964;28;20232;-72
2020/12/31 06:47:01;;;;;;;1.80;1.23;;;3.80;99.90;;;;;;5025537;28;20222;-72
2020/12/31 06:49:53;;;;;;;1.93;1.10;;;3.80;99.90;;;;;;5024540;28;20223;-72
2020/12/31 06:52:22;;;;;;;2.90;1.00;;;3.80;99.90;;;;;;5022018;28;20192;-72
2020/12/31 06:54:49;;;;;;;0.80;0.77;;;4.00;99.90;;;;;;5007001;28;20228;-72
2020/12/31 06:57:40;;;;;;;1.37;1.00;;;3.80;99.90;;;;;;5016075;28;20623;-72
2020/12/31 07:00:06;;;;;;;1.67;1.07;;;3.50;99.90;;;;;;5023101;28;20268;-72
2020/12/31 07:02:44;;;;;;;1.87;0.90;;;3.50;99.90;;;;;;5034709;28;20716;-72
2020/12/31 07:05:23;;;;;;;2.37;1.10;;;3.60;99.90;;;;;;5019098;28;20391;-73
2020/12/31 07:07:49;;;;;;;3.80;0.97;;;3.70;99.90;;;;;;5021568;28;20258;-73
2020/12/31 07:10:16;;;;;;;2.53;1.40;;;3.90;99.90;;;;;;5021587;28;20299;-73
2020/12/31 07:12:47;;;;;;;1.73;1.03;;;3.90;99.90;;;;;;5019188;28;20240;-72
2020/12/31 07:15:16;;;;;;;1.20;1.00;;;3.70;99.90;;;;;;5021025;28;20616;-73
2020/12/31 07:17:44;;;;;;;3.03;1.10;;;3.80;99.90;;;;;;5024105;28;20205;-73
2020/12/31 07:20:18;;;;;;;3.57;1.17;;;3.90;99.90;;;;;;5020190;28;20199;-72
2020/12/31 07:22:47;;;;;;;2.07;1.00;;;4.00;99.90;;;;;;5030594;28;20205;-73
2020/12/31 07:25:15;;;;;;;1.57;1.13;;;4.10;99.90;;;;;;5023628;28;20266;-72
2020/12/31 07:27:43;;;;;;;1.30;1.07;;;3.70;99.90;;;;;;5029937;28;20321;-73
2020/12/31 07:30:14;;;;;;;2.17;1.50;;;3.80;99.90;;;;;;5026061;28;20293;-73
2020/12/31 07:32:46;;;;;;;1.80;1.20;;;3.70;99.90;;;;;;5026244;28;20967;-72
2020/12/31 07:35:33;;;;;;;1.17;0.90;;;3.70;99.90;;;;;;5027141;28;20195;-72
2020/12/31 07:38:13;;;;;;;1.43;1.30;;;3.70;99.90;;;;;;5018733;28;20623;-72
2020/12/31 07:40:46;;;;;;;2.00;0.90;;;3.90;99.90;;;;;;5024170;28;20223;-72
2020/12/31 07:43:18;;;;;;;2.13;1.30;;;4.00;99.90;;;;;;5035901;28;20610;-72
2020/12/31 07:45:51;;;;;;;4.63;1.20;;;4.20;99.90;;;;;;5027981;28;20672;-72
2020/12/31 07:48:18;;;;;;;1.17;1.07;;;4.10;99.90;;;;;;5023933;28;20205;-72
2020/12/31 07:50:45;;;;;;;3.93;1.30;;;4.00;99.90;;;;;;5009925;28;20639;-72
2020/12/31 07:53:12;;;;;;;1.87;1.10;;;3.90;99.90;;;;;;5029787;28;20243;-72
2020/12/31 07:55:50;;;;;;;2.67;1.40;;;3.80;99.90;;;;;;5023621;28;20235;-72
2020/12/31 07:58:25;;;;;;;3.00;1.87;;;3.90;99.90;;;;;;5029098;28;20246;-72
2020/12/31 08:01:02;;;;;;;1.50;1.17;;;3.80;99.90;;;;;;5025905;28;20626;-73
2020/12/31 08:03:28;;;;;;;2.13;1.67;;;4.00;99.90;;;;;;5020688;28;20299;-73
2020/12/31 08:06:08;;;;;;;3.73;1.70;;;4.20;99.90;;;;;;5028612;28;20231;-72
2020/12/31 08:08:35;;;;;;;1.60;1.40;;;4.20;99.90;;;;;;5024418;28;20229;-73
2020/12/31 08:11:08;;;;;;;2.43;1.77;;;4.10;99.90;;;;;;5019604;28;20226;-72
2020/12/31 08:13:35;;;;;;;1.93;1.70;;;4.10;99.90;;;;;;5018003;28;20236;-73
2020/12/31 08:16:02;;;;;;;2.37;1.70;;;4.10;99.90;;;;;;5018064;28;20208;-73
2020/12/31 08:18:29;;;;;;;4.33;2.50;;;4.20;99.90;;;;;;5023322;28;20724;-73
2020/12/31 08:21:04;;;;;;;3.80;2.33;;;4.10;99.90;;;;;;5028331;28;20204;-72
2020/12/31 08:23:42;;;;;;;2.40;1.63;;;4.10;99.90;;;;;;5020766;28;20270;-72
2020/12/31 08:26:09;;;;;;;2.57;1.80;;;4.30;99.90;;;;;;5044830;28;20218;-73
2020/12/31 08:28:37;;;;;;;3.87;2.43;;;4.40;99.90;;;;;;5026814;28;20206;-72
2020/12/31 08:31:12;;;;;;;3.03;2.40;;;4.40;99.90;;;;;;5024673;28;20248;-73
2020/12/31 08:33:40;;;;;;;6.53;3.10;;;4.40;99.90;;;;;;5010646;28;20279;-73
2020/12/31 08:36:08;;;;;;;3.87;2.30;;;4.40;99.90;;;;;;5021624;28;20205;-73
2020/12/31 08:38:39;;;;;;;3.27;2.40;;;4.50;99.90;;;;;;5021312;28;20299;-73
2020/12/31 08:41:07;;;;;;;6.33;2.63;;;4.40;99.90;;;;;;5024071;28;20195;-74
2020/12/31 08:43:40;;;;;;;3.03;2.40;;;4.40;99.90;;;;;;5038604;28;20282;-74
2020/12/31 08:46:08;;;;;;;3.67;2.70;;;3.90;99.90;;;;;;5025313;28;20236;-74
2020/12/31 08:48:36;;;;;;;3.33;3.00;;;3.90;99.90;;;;;;5008042;28;20267;-74
2020/12/31 08:51:11;;;;;;;5.53;2.90;;;3.90;99.90;;;;;;5017975;28;20235;-74
2020/12/31 08:53:59;;;;;;;4.13;2.97;;;4.10;99.90;;;;;;5023003;28;20202;-75
2020/12/31 08:56:30;;;;;;;4.27;3.03;;;3.80;99.90;;;;;;5010696;28;20280;-75
2020/12/31 08:59:16;;;;;;;5.37;3.10;;;4.00;99.90;;;;;;5028040;28;20230;-74
2020/12/31 09:01:43;;;;;;;5.90;3.23;;;4.00;99.90;;;;;;5024441;28;20252;-74
2020/12/31 09:04:18;;;;;;;4.20;3.30;;;4.00;99.90;;;;;;5023020;28;20227;-75
2020/12/31 09:06:46;;;;;;;3.20;2.73;;;4.00;99.90;;;;;;5028710;28;20203;-75
2020/12/31 09:09:20;;;;;;;4.27;3.03;;;4.10;99.90;;;;;;5018907;28;20232;-75
2020/12/31 09:11:57;;;;;;;3.80;2.70;;;3.90;99.90;;;;;;5023173;28;20721;-74
2020/12/31 09:14:24;;;;;;;4.93;3.87;;;4.20;99.90;;;;;;5018310;28;20192;-76
2020/12/31 09:16:50;;;;;;;6.87;3.23;;;4.20;99.90;;;;;;5024469;28;20215;-78
2020/12/31 09:19:17;;;;;;;3.80;2.97;;;4.40;99.90;;;;;;5008292;28;20239;-75
2020/12/31 09:21:45;;;;;;;4.63;3.10;;;4.40;99.90;;;;;;5016039;28;20224;-78
2020/12/31 09:24:19;;;;;;;3.10;2.60;;;4.40;99.90;;;;;;5010258;28;20251;-75
2020/12/31 09:26:55;;;;;;;4.07;2.83;;;4.20;99.90;;;;;;5023762;28;20259;-75
2020/12/31 09:29:23;;;;;;;3.67;2.47;;;4.10;99.90;;;;;;5020132;28;20520;-74
2020/12/31 09:31:53;;;;;;;5.83;3.27;;;4.20;99.90;;;;;;5016016;28;20564;-74
2020/12/31 09:34:21;;;;;;;4.07;3.10;;;4.30;99.90;;;;;;5021871;28;20225;-74
2020/12/31 09:36:47;;;;;;;3.97;2.87;;;4.60;99.90;;;;;;5004830;28;20236;-74
2020/12/31 09:39:14;;;;;;;3.50;2.83;;;4.60;99.90;;;;;;5013639;28;20250;-74
2020/12/31 09:41:40;;;;;;;4.50;2.97;;;4.80;99.90;;;;;;5017765;28;20263;-74
2020/12/31 09:44:06;;;;;;;3.40;2.57;;;4.80;99.90;;;;;;5014863;28;20770;-75
2020/12/31 09:46:33;;;;;;;4.77;2.60;;;4.50;99.90;;;;;;5039332;28;20207;-74
2020/12/31 09:49:00;;;;;;;3.23;2.60;;;4.20;99.90;;;;;;5022266;28;20212;-74
2020/12/31 09:51:26;;;;;;;4.10;2.83;;;4.30;99.90;;;;;;5018168;28;20266;-74
2020/12/31 09:53:53;;;;;;;5.37;2.80;;;4.00;99.90;;;;;;5002040;28;20228;-74
2020/12/31 09:56:19;;;;;;;5.80;2.60;;;3.90;99.90;;;;;;5012533;28;20288;-74
2020/12/31 09:58:46;;;;;;;3.97;2.77;;;3.90;99.90;;;;;;4994630;28;20536;-74
2020/12/31 10:01:14;;;;;;;4.03;2.97;;;3.90;99.90;;;;;;5012678;28;20228;-74
2020/12/31 10:03:41;;;;;;;3.43;2.73;;;4.10;99.90;;;;;;5008486;28;20320;-73
2020/12/31 10:06:10;;;;;;;4.77;2.83;;;4.20;99.90;;;;;;5009119;28;20615;-74
2020/12/31 10:08:36;;;;;;;3.40;2.50;;;4.40;99.90;;;;;;5009727;28;20239;-74
2020/12/31 10:11:05;;;;;;;4.83;2.83;;;4.50;99.90;;;;;;5022827;28;20256;-73
2020/12/31 10:13:31;;;;;;;3.13;2.60;;;4.70;99.90;;;;;;5013393;28;20201;-73
2020/12/31 10:15:59;;;;;;;5.20;3.60;;;4.80;99.90;;;;;;5015338;28;21243;-73
2020/12/31 10:18:26;;;;;;;4.20;2.97;;;4.80;99.90;;;;;;5028923;28;20278;-73
2020/12/31 10:20:52;;;;;;;4.17;3.13;;;4.70;99.90;;;;;;5010812;28;20223;-73
2020/12/31 10:23:19;;;;;;;3.53;2.67;;;4.80;99.90;;;;;;5022387;28;20665;-73
2020/12/31 10:25:47;;;;;;;3.90;2.97;;;4.80;99.90;;;;;;5016896;28;21022;-73
2020/12/31 10:28:14;;;;;;;4.63;2.97;;;5.00;99.90;;;;;;5014369;28;20293;-72
2020/12/31 10:30:41;;;;;;;3.50;2.67;;;5.10;99.90;;;;;;5012986;28;20749;-75
2020/12/31 10:33:07;;;;;;;3.93;2.60;;;5.10;99.90;;;;;;5010367;28;20201;-72
2020/12/31 10:35:33;;;;;;;3.03;2.40;;;4.80;99.90;;;;;;5011042;28;20371;-72
2020/12/31 10:38:00;;;;;;;2.90;2.33;;;4.70;99.90;;;;;;5011040;28;20269;-73
2020/12/31 10:40:26;;;;;;;5.37;3.00;;;4.50;99.90;;;;;;5015092;28;20236;-74
2020/12/31 10:42:53;;;;;;;3.67;3.03;;;4.50;99.90;;;;;;5010223;28;20208;-74
2020/12/31 10:45:19;;;;;;;7.07;2.60;;;4.70;99.90;;;;;;5030707;28;20238;-73
2020/12/31 10:47:45;;;;;;;3.20;2.67;;;5.10;99.90;;;;;;5046306;28;20680;-73
2020/12/31 10:50:11;;;;;;;5.27;3.47;;;5.30;99.90;;;;;;4999785;28;20320;-73
2020/12/31 10:52:38;;;;;;;3.53;2.50;;;5.20;99.90;;;;;;5024870;28;20212;-76
2020/12/31 10:55:04;;;;;;;5.67;3.63;;;5.30;99.90;;;;;;5032242;28;20321;-73
2020/12/31 10:57:30;;;;;;;3.20;2.70;;;5.40;99.90;;;;;;5030158;28;20236;-73
2020/12/31 10:59:57;;;;;;;3.17;2.77;;;5.40;99.90;;;;;;5020108;28;20229;-73
2020/12/31 11:02:23;;;;;;;4.37;3.03;;;5.50;99.90;;;;;;4999992;28;20765;-73
2020/12/31 11:04:49;;;;;;;4.50;3.40;;;5.60;99.90;;;;;;5016201;28;20287;-73
2020/12/31 11:07:15;;;;;;;5.47;3.37;;;5.70;99.90;;;;;;5016755;28;20225;-73
2020/12/31 11:09:42;;;;;;;5.10;3.27;;;5.50;99.90;;;;;;5018419;28;20230;-73
2020/12/31 11:12:08;;;;;;;5.10;3.23;;;5.60;99.90;;;;;;5019077;28;20202;-74
2020/12/31 11:14:35;;;;;;;4.00;2.93;;;5.70;99.90;;;;;;5017634;28;20271;-74
2020/12/31 11:17:01;;;;;;;4.37;2.53;;;5.70;99.90;;;;;;5034888;28;20291;-74
2020/12/31 11:19:27;;;;;;;4.80;3.03;;;5.90;99.90;;;;;;5017867;28;20606;-73
2020/12/31 11:21:54;;;;;;;4.17;3.10;;;5.90;99.90;;;;;;5005664;28;20609;-73
2020/12/31 11:24:20;;;;;;;4.63;2.70;;;5.80;99.90;;;;;;5000989;28;20197;-73
2020/12/31 11:26:46;;;;;;;4.63;3.23;;;5.70;99.90;;;;;;5021783;28;20705;-73
2020/12/31 11:29:13;;;;;;;5.07;3.33;;;5.50;99.90;;;;;;5034174;28;20286;-73
2020/12/31 11:31:40;;;;;;;4.40;2.97;;;5.70;99.90;;;;;;5019657;28;20213;-73
2020/12/31 11:34:08;;;;;;;6.00;2.80;;;5.60;99.90;;;;;;5007042;28;20498;-74
2020/12/31 11:36:34;;;;;;;3.23;2.67;;;5.20;99.90;;;;;;5002257;28;20644;-73
2020/12/31 11:39:01;;;;;;;4.17;2.93;;;5.50;99.90;;;;;;5016944;28;20604;-73
2020/12/31 11:41:28;;;;;;;5.10;3.07;;;5.60;99.90;;;;;;5033382;28;20224;-76
2020/12/31 11:43:54;;;;;;;3.60;2.23;;;5.70;99.90;;;;;;5016628;28;20644;-73
2020/12/31 11:46:21;;;;;;;5.70;3.07;;;5.60;99.90;;;;;;5013452;28;20209;-73
2020/12/31 11:48:47;;;;;;;4.70;3.00;;;5.30;99.90;;;;;;5017388;28;20287;-74
2020/12/31 11:51:13;;;;;;;3.23;2.60;;;5.30;99.90;;;;;;5015589;28;20221;-73
2020/12/31 11:53:40;;;;;;;3.87;2.70;;;5.20;99.90;;;;;;5013827;28;20229;-76
2020/12/31 11:56:07;;;;;;;3.27;2.60;;;5.30;99.90;;;;;;5008680;28;20200;-77
2020/12/31 11:58:33;;;;;;;3.80;2.47;;;5.30;99.90;;;;;;5015405;28;20267;-76
2020/12/31 12:01:00;;;;;;;3.43;2.57;;;5.20;99.90;;;;;;5018360;28;20212;-76
2020/12/31 12:03:27;;;;;;;3.83;2.83;;;5.50;99.90;;;;;;5030689;28;20212;-77
2020/12/31 12:05:54;;;;;;;4.07;3.00;;;5.60;99.90;;;;;;5016822;28;20278;-75
2020/12/31 12:08:23;;;;;;;2.93;2.57;;;5.70;99.90;;;;;;5015957;28;20258;-74
2020/12/31 12:10:49;;;;;;;3.97;3.17;;;5.50;99.90;;;;;;5007763;28;21387;-74
2020/12/31 12:13:16;;;;;;;3.77;3.03;;;5.40;99.90;;;;;;5014990;28;20205;-75
2020/12/31 12:15:43;;;;;;;3.87;2.80;;;5.60;99.90;;;;;;5015727;28;20271;-74
2020/12/31 12:18:11;;;;;;;3.93;2.40;;;5.50;99.90;;;;;;5006467;28;20626;-77
2020/12/31 12:20:37;;;;;;;3.03;2.40;;;5.60;99.90;;;;;;5016814;28;20301;-75
2020/12/31 12:23:04;;;;;;;3.50;2.47;;;5.70;99.90;;;;;;5030943;28;20295;-74
2020/12/31 12:25:30;;;;;;;3.63;2.43;;;5.70;99.90;;;;;;5017859;28;20209;-73
2020/12/31 12:27:57;;;;;;;4.17;3.13;;;5.80;99.90;;;;;;5029481;28;20243;-76
2020/12/31 12:30:23;;;;;;;5.23;2.87;;;5.70;99.90;;;;;;5000209;28;20367;-76
2020/12/31 12:32:50;;;;;;;2.63;2.43;;;5.50;99.90;;;;;;5025678;28;20563;-77
2020/12/31 12:35:16;;;;;;;3.43;2.73;;;5.40;99.90;;;;;;5031945;28;20205;-79
2020/12/31 12:37:42;;;;;;;5.30;3.30;;;5.30;99.90;;;;;;5008902;28;20675;-76
2020/12/31 12:40:09;;;;;;;4.27;2.67;;;5.30;99.90;;;;;;5014373;28;20207;-76
2020/12/31 12:42:35;;;;;;;4.57;2.93;;;5.60;99.90;;;;;;5011759;28;20219;-76
2020/12/31 12:45:05;;;;;;;4.17;2.87;;;5.80;99.90;;;;;;5006539;28;20562;-76
2020/12/31 12:47:36;;;;;;;3.87;3.20;;;6.00;99.90;;;;;;5013772;28;20257;-74
2020/12/31 12:50:05;;;;;;;3.97;2.90;;;5.90;99.90;;;;;;5030356;28;20245;-77
2020/12/31 12:52:32;;;;;;;5.60;3.57;;;5.90;99.90;;;;;;5014975;28;20211;-76
2020/12/31 12:54:59;;;;;;;8.03;5.23;;;6.00;99.90;;;;;;5030696;28;20694;-74
2020/12/31 12:57:26;;;;;;;11.77;5.30;;;6.10;99.90;;;;;;5019225;28;20224;-77
2020/12/31 12:59:52;;;;;;;7.53;4.67;;;6.10;99.90;;;;;;5007270;28;20258;-74
2020/12/31 13:02:19;;;;;;;7.87;5.10;;;6.10;99.90;;;;;;5005293;28;20262;-74
2020/12/31 13:04:45;;;;;;;8.43;5.10;;;6.20;99.90;;;;;;5014488;28;20266;-76